Terminal Aerodrome Forecast
Issued by NWS Burlington, VT

Home | Current Version | Previous Version | Text Only | Print | Product List | Glossary On
Versions: 1 2 3 4 5 6 7 8 9 10 11 12 13 14 15 16 17 18
647
FTUS41 KBTV 241749 CCA
TAFBTV
TAF COR
KBTV 241749Z 2418/2518 31005KT P6SM -SHRA BKN030 OVC035
      TEMPO 2418/2421 5SM -SHRA BKN020 OVC030
     FM242100 VRB05KT P6SM VCSH OVC025
     FM250000 18005KT P6SM SCT015 OVC020
     FM250600 19012KT P6SM BKN025 OVC030
     FM251200 17013G25KT P6SM BKN035=

USA.gov is the U.S. government's official web portal to all federal, state and local government web resources and services.